sensor_id;sensor_type;location;lat;lon;timestamp;temperature;humidity
24426;DHT22;12611;44.446;26.000;2023-02-21T00:01:43;9.30;76.30
24426;DHT22;12611;44.446;26.000;2023-02-21T00:04:28;9.30;76.00
24426;DHT22;12611;44.446;26.000;2023-02-21T00:07:15;9.40;75.90
24426;DHT22;12611;44.446;26.000;2023-02-21T00:10:00;9.40;75.80
24426;DHT22;12611;44.446;26.000;2023-02-21T00:12:46;9.40;76.40
24426;DHT22;12611;44.446;26.000;2023-02-21T00:15:33;9.40;76.10
24426;DHT22;12611;44.446;26.000;2023-02-21T00:18:20;9.40;76.10
24426;DHT22;12611;44.446;26.000;2023-02-21T00:21:05;9.40;76.20
24426;DHT22;12611;44.446;26.000;2023-02-21T00:23:51;9.40;76.20
24426;DHT22;12611;44.446;26.000;2023-02-21T00:26:37;9.40;76.50
24426;DHT22;12611;44.446;26.000;2023-02-21T00:29:23;9.50;76.40
24426;DHT22;12611;44.446;26.000;2023-02-21T00:32:10;9.50;76.50
24426;DHT22;12611;44.446;26.000;2023-02-21T00:34:56;9.40;76.60
24426;DHT22;12611;44.446;26.000;2023-02-21T00:37:42;9.40;76.80
24426;DHT22;12611;44.446;26.000;2023-02-21T00:40:28;9.50;76.60
24426;DHT22;12611;44.446;26.000;2023-02-21T00:43:14;9.40;76.80
24426;DHT22;12611;44.446;26.000;2023-02-21T00:46:02;9.50;76.80
24426;DHT22;12611;44.446;26.000;2023-02-21T00:48:50;9.50;76.70
24426;DHT22;12611;44.446;26.000;2023-02-21T00:51:35;9.50;76.50
24426;DHT22;12611;44.446;26.000;2023-02-21T00:54:21;9.50;76.80
24426;DHT22;12611;44.446;26.000;2023-02-21T00:57:07;9.50;76.80
24426;DHT22;12611;44.446;26.000;2023-02-21T00:59:53;9.50;76.80
24426;DHT22;12611;44.446;26.000;2023-02-21T01:02:38;9.50;76.90
24426;DHT22;12611;44.446;26.000;2023-02-21T01:05:26;9.50;77.00
24426;DHT22;12611;44.446;26.000;2023-02-21T01:08:12;9.50;76.90
24426;DHT22;12611;44.446;26.000;2023-02-21T01:10:58;9.40;77.10
24426;DHT22;12611;44.446;26.000;2023-02-21T01:13:43;9.50;77.10
24426;DHT22;12611;44.446;26.000;2023-02-21T01:16:30;9.50;77.10
24426;DHT22;12611;44.446;26.000;2023-02-21T01:19:17;9.50;76.90
24426;DHT22;12611;44.446;26.000;2023-02-21T01:22:05;9.50;76.90
24426;DHT22;12611;44.446;26.000;2023-02-21T01:24:51;9.50;77.10
24426;DHT22;12611;44.446;26.000;2023-02-21T01:27:36;9.50;76.90
24426;DHT22;12611;44.446;26.000;2023-02-21T01:30:22;9.50;77.10
24426;DHT22;12611;44.446;26.000;2023-02-21T01:33:07;9.50;77.10
24426;DHT22;12611;44.446;26.000;2023-02-21T01:35:53;9.50;77.30
24426;DHT22;12611;44.446;26.000;2023-02-21T01:38:41;9.40;77.40
24426;DHT22;12611;44.446;26.000;2023-02-21T01:41:26;9.40;77.60
24426;DHT22;12611;44.446;26.000;2023-02-21T01:44:32;9.40;77.90
24426;DHT22;12611;44.446;26.000;2023-02-21T01:47:18;9.30;78.00
24426;DHT22;12611;44.446;26.000;2023-02-21T01:50:10;9.30;78.30
24426;DHT22;12611;44.446;26.000;2023-02-21T01:52:57;9.30;78.60
24426;DHT22;12611;44.446;26.000;2023-02-21T01:55:45;9.20;78.70
24426;DHT22;12611;44.446;26.000;2023-02-21T01:58:32;9.20;78.80
24426;DHT22;12611;44.446;26.000;2023-02-21T02:01:26;9.20;78.90
24426;DHT22;12611;44.446;26.000;2023-02-21T02:04:15;9.20;79.00
24426;DHT22;12611;44.446;26.000;2023-02-21T02:07:01;9.10;79.10
24426;DHT22;12611;44.446;26.000;2023-02-21T02:09:47;9.10;79.40
24426;DHT22;12611;44.446;26.000;2023-02-21T02:12:58;9.10;79.80
24426;DHT22;12611;44.446;26.000;2023-02-21T02:15:37;9.00;79.60
24426;DHT22;12611;44.446;26.000;2023-02-21T02:18:28;9.00;79.50
24426;DHT22;12611;44.446;26.000;2023-02-21T02:21:26;9.00;79.50
24426;DHT22;12611;44.446;26.000;2023-02-21T02:24:34;9.00;79.70
24426;DHT22;12611;44.446;26.000;2023-02-21T02:27:33;9.00;80.00
24426;DHT22;12611;44.446;26.000;2023-02-21T02:30:39;9.00;80.10
24426;DHT22;12611;44.446;26.000;2023-02-21T02:33:41;8.90;80.20
24426;DHT22;12611;44.446;26.000;2023-02-21T02:36:18;8.90;80.20
24426;DHT22;12611;44.446;26.000;2023-02-21T02:38:55;8.90;80.40
24426;DHT22;12611;44.446;26.000;2023-02-21T02:41:32;8.90;80.40
24426;DHT22;12611;44.446;26.000;2023-02-21T02:44:07;8.80;80.70
24426;DHT22;12611;44.446;26.000;2023-02-21T02:46:39;8.80;80.70
24426;DHT22;12611;44.446;26.000;2023-02-21T02:49:11;8.80;80.70
24426;DHT22;12611;44.446;26.000;2023-02-21T02:51:43;8.80;80.90
24426;DHT22;12611;44.446;26.000;2023-02-21T02:54:12;8.70;80.80
24426;DHT22;12611;44.446;26.000;2023-02-21T02:56:40;8.70;81.10
24426;DHT22;12611;44.446;26.000;2023-02-21T02:59:10;8.70;81.20
24426;DHT22;12611;44.446;26.000;2023-02-21T03:02:04;8.70;81.20
24426;DHT22;12611;44.446;26.000;2023-02-21T03:04:44;8.60;81.20
24426;DHT22;12611;44.446;26.000;2023-02-21T03:07:24;8.70;81.10
24426;DHT22;12611;44.446;26.000;2023-02-21T03:10:11;8.70;81.30
24426;DHT22;12611;44.446;26.000;2023-02-21T03:12:46;8.60;81.30
24426;DHT22;12611;44.446;26.000;2023-02-21T03:15:19;8.60;81.30
24426;DHT22;12611;44.446;26.000;2023-02-21T03:17:52;8.70;81.10
24426;DHT22;12611;44.446;26.000;2023-02-21T03:20:24;8.70;80.90
24426;DHT22;12611;44.446;26.000;2023-02-21T03:22:56;8.70;80.80
24426;DHT22;12611;44.446;26.000;2023-02-21T03:25:26;8.80;80.70
24426;DHT22;12611;44.446;26.000;2023-02-21T03:27:57;8.70;80.80
24426;DHT22;12611;44.446;26.000;2023-02-21T03:30:28;8.70;80.70
24426;DHT22;12611;44.446;26.000;2023-02-21T03:32:56;8.70;80.70
24426;DHT22;12611;44.446;26.000;2023-02-21T03:35:28;8.70;80.90
24426;DHT22;12611;44.446;26.000;2023-02-21T03:37:58;8.70;81.10
24426;DHT22;12611;44.446;26.000;2023-02-21T03:40:29;8.70;81.10
24426;DHT22;12611;44.446;26.000;2023-02-21T03:42:58;8.60;81.40
24426;DHT22;12611;44.446;26.000;2023-02-21T03:45:27;8.70;81.40
24426;DHT22;12611;44.446;26.000;2023-02-21T03:47:56;8.60;81.40
24426;DHT22;12611;44.446;26.000;2023-02-21T03:50:24;8.60;81.60
24426;DHT22;12611;44.446;26.000;2023-02-21T03:52:52;8.60;81.80
24426;DHT22;12611;44.446;26.000;2023-02-21T03:55:22;8.60;82.00
24426;DHT22;12611;44.446;26.000;2023-02-21T03:57:51;8.60;82.10
24426;DHT22;12611;44.446;26.000;2023-02-21T04:00:19;8.50;82.10
24426;DHT22;12611;44.446;26.000;2023-02-21T04:02:47;8.50;82.00
24426;DHT22;12611;44.446;26.000;2023-02-21T04:05:16;8.50;82.30
24426;DHT22;12611;44.446;26.000;2023-02-21T04:07:44;8.50;82.50
24426;DHT22;12611;44.446;26.000;2023-02-21T04:10:13;8.40;82.50
24426;DHT22;12611;44.446;26.000;2023-02-21T04:12:43;8.40;82.60
24426;DHT22;12611;44.446;26.000;2023-02-21T04:15:11;8.40;82.60
24426;DHT22;12611;44.446;26.000;2023-02-21T04:17:39;8.40;82.70
24426;DHT22;12611;44.446;26.000;2023-02-21T04:20:09;8.40;82.60
24426;DHT22;12611;44.446;26.000;2023-02-21T04:22:37;8.50;82.60
24426;DHT22;12611;44.446;26.000;2023-02-21T04:25:06;8.50;82.60
24426;DHT22;12611;44.446;26.000;2023-02-21T04:27:35;8.50;82.40
24426;DHT22;12611;44.446;26.000;2023-02-21T04:30:05;8.50;82.40
24426;DHT22;12611;44.446;26.000;2023-02-21T04:32:34;8.50;82.60
24426;DHT22;12611;44.446;26.000;2023-02-21T04:35:03;8.40;82.60
24426;DHT22;12611;44.446;26.000;2023-02-21T04:37:33;8.40;82.70
24426;DHT22;12611;44.446;26.000;2023-02-21T04:40:01;8.40;82.80
24426;DHT22;12611;44.446;26.000;2023-02-21T04:42:29;8.40;82.70
24426;DHT22;12611;44.446;26.000;2023-02-21T04:44:58;8.50;82.50
24426;DHT22;12611;44.446;26.000;2023-02-21T04:47:28;8.40;82.60
24426;DHT22;12611;44.446;26.000;2023-02-21T04:49:56;8.40;82.70
24426;DHT22;12611;44.446;26.000;2023-02-21T04:52:25;8.40;83.00
24426;DHT22;12611;44.446;26.000;2023-02-21T04:54:53;8.40;82.70
24426;DHT22;12611;44.446;26.000;2023-02-21T04:57:22;8.40;82.70
24426;DHT22;12611;44.446;26.000;2023-02-21T04:59:56;8.40;82.90
24426;DHT22;12611;44.446;26.000;2023-02-21T05:02:25;8.40;83.00
24426;DHT22;12611;44.446;26.000;2023-02-21T05:04:55;8.30;83.10
24426;DHT22;12611;44.446;26.000;2023-02-21T05:07:23;8.30;83.20
24426;DHT22;12611;44.446;26.000;2023-02-21T05:09:52;8.30;83.20
24426;DHT22;12611;44.446;26.000;2023-02-21T05:12:21;8.30;83.20
24426;DHT22;12611;44.446;26.000;2023-02-21T05:14:50;8.30;83.20
24426;DHT22;12611;44.446;26.000;2023-02-21T05:17:18;8.30;83.10
24426;DHT22;12611;44.446;26.000;2023-02-21T05:19:47;8.30;84.00
24426;DHT22;12611;44.446;26.000;2023-02-21T05:22:17;8.30;83.20
24426;DHT22;12611;44.446;26.000;2023-02-21T05:24:46;8.20;83.50
24426;DHT22;12611;44.446;26.000;2023-02-21T05:27:16;8.20;83.60
24426;DHT22;12611;44.446;26.000;2023-02-21T05:29:45;8.20;83.70
24426;DHT22;12611;44.446;26.000;2023-02-21T05:32:16;8.20;83.60
24426;DHT22;12611;44.446;26.000;2023-02-21T05:34:45;8.30;83.50
24426;DHT22;12611;44.446;26.000;2023-02-21T05:37:16;8.30;83.40
24426;DHT22;12611;44.446;26.000;2023-02-21T05:39:47;8.30;83.60
24426;DHT22;12611;44.446;26.000;2023-02-21T05:42:16;8.30;83.50
24426;DHT22;12611;44.446;26.000;2023-02-21T05:44:45;8.30;83.70
24426;DHT22;12611;44.446;26.000;2023-02-21T05:47:14;8.20;83.80
24426;DHT22;12611;44.446;26.000;2023-02-21T05:49:42;8.30;83.80
24426;DHT22;12611;44.446;26.000;2023-02-21T05:52:12;8.30;83.90
24426;DHT22;12611;44.446;26.000;2023-02-21T05:54:42;8.30;83.80
24426;DHT22;12611;44.446;26.000;2023-02-21T05:57:10;8.30;83.60
24426;DHT22;12611;44.446;26.000;2023-02-21T05:59:38;8.30;83.80
24426;DHT22;12611;44.446;26.000;2023-02-21T06:02:07;8.30;84.50
24426;DHT22;12611;44.446;26.000;2023-02-21T06:04:35;8.30;83.70
24426;DHT22;12611;44.446;26.000;2023-02-21T06:07:03;8.30;83.80
24426;DHT22;12611;44.446;26.000;2023-02-21T06:09:32;8.40;83.50
24426;DHT22;12611;44.446;26.000;2023-02-21T06:12:02;8.40;83.60
24426;DHT22;12611;44.446;26.000;2023-02-21T06:14:30;8.40;83.50
24426;DHT22;12611;44.446;26.000;2023-02-21T06:16:59;8.40;83.40
24426;DHT22;12611;44.446;26.000;2023-02-21T06:19:28;8.40;83.50
24426;DHT22;12611;44.446;26.000;2023-02-21T06:21:59;8.50;83.50
24426;DHT22;12611;44.446;26.000;2023-02-21T06:24:27;8.50;83.30
24426;DHT22;12611;44.446;26.000;2023-02-21T06:26:56;8.50;83.30
24426;DHT22;12611;44.446;26.000;2023-02-21T06:29:25;8.60;83.30
24426;DHT22;12611;44.446;26.000;2023-02-21T06:31:58;8.60;83.30
24426;DHT22;12611;44.446;26.000;2023-02-21T06:34:29;8.70;83.50
24426;DHT22;12611;44.446;26.000;2023-02-21T06:36:58;8.70;83.90
24426;DHT22;12611;44.446;26.000;2023-02-21T06:39:26;8.90;83.80
24426;DHT22;12611;44.446;26.000;2023-02-21T06:41:55;8.90;83.40
24426;DHT22;12611;44.446;26.000;2023-02-21T06:44:25;9.00;82.90
24426;DHT22;12611;44.446;26.000;2023-02-21T06:46:53;9.10;82.70
24426;DHT22;12611;44.446;26.000;2023-02-21T06:49:21;9.10;82.50
24426;DHT22;12611;44.446;26.000;2023-02-21T06:51:50;9.20;82.40
24426;DHT22;12611;44.446;26.000;2023-02-21T06:54:18;9.30;82.10
24426;DHT22;12611;44.446;26.000;2023-02-21T06:56:46;9.30;82.00
24426;DHT22;12611;44.446;26.000;2023-02-21T06:59:15;9.40;82.00
24426;DHT22;12611;44.446;26.000;2023-02-21T07:01:45;9.50;82.60
24426;DHT22;12611;44.446;26.000;2023-02-21T07:04:15;9.50;81.60
24426;DHT22;12611;44.446;26.000;2023-02-21T07:06:43;9.60;81.60
24426;DHT22;12611;44.446;26.000;2023-02-21T07:09:11;9.70;81.60
24426;DHT22;12611;44.446;26.000;2023-02-21T07:11:40;9.80;81.60
24426;DHT22;12611;44.446;26.000;2023-02-21T07:14:10;9.80;81.20
24426;DHT22;12611;44.446;26.000;2023-02-21T07:16:38;9.90;80.60
24426;DHT22;12611;44.446;26.000;2023-02-21T07:19:08;10.00;80.40
24426;DHT22;12611;44.446;26.000;2023-02-21T07:21:41;10.10;80.20
24426;DHT22;12611;44.446;26.000;2023-02-21T07:24:10;10.30;79.70
24426;DHT22;12611;44.446;26.000;2023-02-21T07:26:41;10.40;79.60
24426;DHT22;12611;44.446;26.000;2023-02-21T07:29:09;10.60;79.60
24426;DHT22;12611;44.446;26.000;2023-02-21T07:31:38;10.70;78.80
24426;DHT22;12611;44.446;26.000;2023-02-21T07:34:08;10.80;78.30
24426;DHT22;12611;44.446;26.000;2023-02-21T07:36:38;11.00;78.40
24426;DHT22;12611;44.446;26.000;2023-02-21T07:39:06;11.10;78.00
24426;DHT22;12611;44.446;26.000;2023-02-21T07:41:34;11.30;77.80
24426;DHT22;12611;44.446;26.000;2023-02-21T07:44:03;11.40;77.50
24426;DHT22;12611;44.446;26.000;2023-02-21T07:46:31;11.60;77.20
24426;DHT22;12611;44.446;26.000;2023-02-21T07:49:01;11.70;77.20
24426;DHT22;12611;44.446;26.000;2023-02-21T07:51:30;11.80;76.60
24426;DHT22;12611;44.446;26.000;2023-02-21T07:53:59;11.90;76.10
24426;DHT22;12611;44.446;26.000;2023-02-21T07:56:27;12.00;76.10
24426;DHT22;12611;44.446;26.000;2023-02-21T07:58:55;12.20;76.00
24426;DHT22;12611;44.446;26.000;2023-02-21T08:01:24;12.30;75.50
24426;DHT22;12611;44.446;26.000;2023-02-21T08:03:53;12.40;74.90
24426;DHT22;12611;44.446;26.000;2023-02-21T08:06:21;12.50;74.40
24426;DHT22;12611;44.446;26.000;2023-02-21T08:08:51;12.60;73.60
24426;DHT22;12611;44.446;26.000;2023-02-21T08:11:19;12.70;73.80
24426;DHT22;12611;44.446;26.000;2023-02-21T08:13:48;12.80;73.00
24426;DHT22;12611;44.446;26.000;2023-02-21T08:16:16;13.00;72.40
24426;DHT22;12611;44.446;26.000;2023-02-21T08:18:46;13.20;71.50
24426;DHT22;12611;44.446;26.000;2023-02-21T08:21:16;13.30;71.30
24426;DHT22;12611;44.446;26.000;2023-02-21T08:23:45;13.50;70.50
24426;DHT22;12611;44.446;26.000;2023-02-21T08:26:15;13.60;69.80
24426;DHT22;12611;44.446;26.000;2023-02-21T08:28:43;13.80;69.40
24426;DHT22;12611;44.446;26.000;2023-02-21T08:31:12;13.90;68.60
24426;DHT22;12611;44.446;26.000;2023-02-21T08:33:41;14.10;67.90
24426;DHT22;12611;44.446;26.000;2023-02-21T08:36:09;14.20;67.60
24426;DHT22;12611;44.446;26.000;2023-02-21T08:38:40;14.40;67.10
24426;DHT22;12611;44.446;26.000;2023-02-21T08:41:08;14.50;66.20
24426;DHT22;12611;44.446;26.000;2023-02-21T08:43:38;14.70;65.90
24426;DHT22;12611;44.446;26.000;2023-02-21T08:46:06;14.80;65.40
24426;DHT22;12611;44.446;26.000;2023-02-21T08:48:35;15.00;64.80
24426;DHT22;12611;44.446;26.000;2023-02-21T08:51:04;15.10;64.90
24426;DHT22;12611;44.446;26.000;2023-02-21T08:53:32;15.30;63.80
24426;DHT22;12611;44.446;26.000;2023-02-21T08:56:01;15.40;63.30
24426;DHT22;12611;44.446;26.000;2023-02-21T08:58:40;15.50;62.90
24426;DHT22;12611;44.446;26.000;2023-02-21T09:01:12;15.60;62.60
24426;DHT22;12611;44.446;26.000;2023-02-21T09:04:05;15.70;61.90
24426;DHT22;12611;44.446;26.000;2023-02-21T09:06:34;15.80;62.20
24426;DHT22;12611;44.446;26.000;2023-02-21T09:09:02;15.90;61.60
24426;DHT22;12611;44.446;26.000;2023-02-21T09:11:31;15.90;62.00
24426;DHT22;12611;44.446;26.000;2023-02-21T09:14:00;16.00;61.30
24426;DHT22;12611;44.446;26.000;2023-02-21T09:16:32;16.10;61.60
24426;DHT22;12611;44.446;26.000;2023-02-21T09:23:16;16.20;60.50
24426;DHT22;12611;44.446;26.000;2023-02-21T09:25:46;16.20;60.30
24426;DHT22;12611;44.446;26.000;2023-02-21T09:28:14;16.30;60.40
24426;DHT22;12611;44.446;26.000;2023-02-21T09:30:45;16.40;60.30
24426;DHT22;12611;44.446;26.000;2023-02-21T09:33:15;16.40;59.60
24426;DHT22;12611;44.446;26.000;2023-02-21T09:35:43;16.50;59.80
24426;DHT22;12611;44.446;26.000;2023-02-21T09:38:12;16.50;59.40
24426;DHT22;12611;44.446;26.000;2023-02-21T09:40:43;16.60;59.40
24426;DHT22;12611;44.446;26.000;2023-02-21T09:43:14;16.70;59.40
24426;DHT22;12611;44.446;26.000;2023-02-21T09:45:46;16.70;59.10
24426;DHT22;12611;44.446;26.000;2023-02-21T09:48:17;16.70;59.30
24426;DHT22;12611;44.446;26.000;2023-02-21T09:50:48;16.80;59.70
24426;DHT22;12611;44.446;26.000;2023-02-21T09:53:20;16.80;59.30
24426;DHT22;12611;44.446;26.000;2023-02-21T09:55:52;16.90;58.80
24426;DHT22;12611;44.446;26.000;2023-02-21T09:58:21;17.00;59.10
24426;DHT22;12611;44.446;26.000;2023-02-21T10:00:51;17.10;58.90
24426;DHT22;12611;44.446;26.000;2023-02-21T10:03:38;17.20;58.00
24426;DHT22;12611;44.446;26.000;2023-02-21T10:06:12;17.30;57.70
24426;DHT22;12611;44.446;26.000;2023-02-21T10:08:49;17.40;56.70
24426;DHT22;12611;44.446;26.000;2023-02-21T10:11:29;17.50;57.80
24426;DHT22;12611;44.446;26.000;2023-02-21T10:14:05;17.60;56.20
24426;DHT22;12611;44.446;26.000;2023-02-21T10:16:43;17.70;55.70
24426;DHT22;12611;44.446;26.000;2023-02-21T10:19:18;17.80;55.70
24426;DHT22;12611;44.446;26.000;2023-02-21T10:21:57;17.80;55.30
24426;DHT22;12611;44.446;26.000;2023-02-21T10:24:27;17.90;55.20
24426;DHT22;12611;44.446;26.000;2023-02-21T10:27:00;18.00;55.70
24426;DHT22;12611;44.446;26.000;2023-02-21T10:29:37;18.10;55.00
24426;DHT22;12611;44.446;26.000;2023-02-21T10:32:08;18.20;55.50
24426;DHT22;12611;44.446;26.000;2023-02-21T10:34:36;18.20;55.00
24426;DHT22;12611;44.446;26.000;2023-02-21T10:37:27;18.30;54.40
24426;DHT22;12611;44.446;26.000;2023-02-21T10:40:03;18.40;54.40
24426;DHT22;12611;44.446;26.000;2023-02-21T10:42:39;18.50;54.50
24426;DHT22;12611;44.446;26.000;2023-02-21T10:45:11;18.50;54.80
24426;DHT22;12611;44.446;26.000;2023-02-21T10:47:55;18.50;54.20
24426;DHT22;12611;44.446;26.000;2023-02-21T10:50:44;18.60;54.40
24426;DHT22;12611;44.446;26.000;2023-02-21T10:53:28;18.70;54.10
24426;DHT22;12611;44.446;26.000;2023-02-21T10:56:24;18.80;53.90
24426;DHT22;12611;44.446;26.000;2023-02-21T10:58:55;18.80;53.40
24426;DHT22;12611;44.446;26.000;2023-02-21T11:01:41;18.90;53.50
24426;DHT22;12611;44.446;26.000;2023-02-21T11:04:25;19.00;53.60
24426;DHT22;12611;44.446;26.000;2023-02-21T11:06:57;19.10;53.40
24426;DHT22;12611;44.446;26.000;2023-02-21T11:09:37;19.10;52.30
24426;DHT22;12611;44.446;26.000;2023-02-21T11:12:17;19.20;52.40
24426;DHT22;12611;44.446;26.000;2023-02-21T11:15:04;19.20;52.50
24426;DHT22;12611;44.446;26.000;2023-02-21T11:17:33;19.30;51.60
24426;DHT22;12611;44.446;26.000;2023-02-21T11:20:14;19.30;51.40
24426;DHT22;12611;44.446;26.000;2023-02-21T11:22:45;19.30;51.70
24426;DHT22;12611;44.446;26.000;2023-02-21T11:25:25;19.40;51.90
24426;DHT22;12611;44.446;26.000;2023-02-21T11:28:02;19.40;52.40
24426;DHT22;12611;44.446;26.000;2023-02-21T11:30:34;19.50;51.70
24426;DHT22;12611;44.446;26.000;2023-02-21T11:33:05;19.60;50.80
24426;DHT22;12611;44.446;26.000;2023-02-21T11:35:41;19.70;50.50
24426;DHT22;12611;44.446;26.000;2023-02-21T11:38:30;19.90;50.30
24426;DHT22;12611;44.446;26.000;2023-02-21T11:41:01;20.00;49.90
24426;DHT22;12611;44.446;26.000;2023-02-21T11:43:31;20.10;50.70
24426;DHT22;12611;44.446;26.000;2023-02-21T11:46:16;20.10;51.10
24426;DHT22;12611;44.446;26.000;2023-02-21T11:48:54;20.30;50.60
24426;DHT22;12611;44.446;26.000;2023-02-21T11:51:37;20.30;49.90
24426;DHT22;12611;44.446;26.000;2023-02-21T11:54:06;20.50;49.60
24426;DHT22;12611;44.446;26.000;2023-02-21T11:56:50;20.50;49.30
24426;DHT22;12611;44.446;26.000;2023-02-21T11:59:38;20.70;49.10
24426;DHT22;12611;44.446;26.000;2023-02-21T12:02:49;20.80;48.10
24426;DHT22;12611;44.446;26.000;2023-02-21T12:05:42;20.90;47.70
24426;DHT22;12611;44.446;26.000;2023-02-21T12:08:28;20.90;47.30
24426;DHT22;12611;44.446;26.000;2023-02-21T12:11:16;21.00;47.20
24426;DHT22;12611;44.446;26.000;2023-02-21T12:13:54;21.00;47.40
24426;DHT22;12611;44.446;26.000;2023-02-21T12:16:38;21.00;47.30
24426;DHT22;12611;44.446;26.000;2023-02-21T12:19:31;21.10;47.10
24426;DHT22;12611;44.446;26.000;2023-02-21T12:22:13;21.00;47.20
24426;DHT22;12611;44.446;26.000;2023-02-21T12:24:59;21.00;47.60
24426;DHT22;12611;44.446;26.000;2023-02-21T12:27:35;21.00;47.30
24426;DHT22;12611;44.446;26.000;2023-02-21T12:30:17;21.00;47.50
24426;DHT22;12611;44.446;26.000;2023-02-21T12:32:57;21.10;47.10
24426;DHT22;12611;44.446;26.000;2023-02-21T12:35:40;21.00;48.10
24426;DHT22;12611;44.446;26.000;2023-02-21T12:38:21;21.00;47.10
24426;DHT22;12611;44.446;26.000;2023-02-21T12:41:00;20.90;47.30
24426;DHT22;12611;44.446;26.000;2023-02-21T12:43:42;20.90;47.00
24426;DHT22;12611;44.446;26.000;2023-02-21T12:46:20;20.80;46.80
24426;DHT22;12611;44.446;26.000;2023-02-21T12:48:57;20.80;46.70
24426;DHT22;12611;44.446;26.000;2023-02-21T12:51:30;20.90;47.30
24426;DHT22;12611;44.446;26.000;2023-02-21T12:54:03;21.00;47.00
24426;DHT22;12611;44.446;26.000;2023-02-21T12:56:37;21.10;46.70
24426;DHT22;12611;44.446;26.000;2023-02-21T12:59:12;21.10;45.90
24426;DHT22;12611;44.446;26.000;2023-02-21T13:01:46;21.20;46.40
24426;DHT22;12611;44.446;26.000;2023-02-21T13:04:21;21.30;45.30
24426;DHT22;12611;44.446;26.000;2023-02-21T13:06:55;21.30;45.60
24426;DHT22;12611;44.446;26.000;2023-02-21T13:09:32;21.40;45.60
24426;DHT22;12611;44.446;26.000;2023-02-21T13:12:07;21.40;44.60
24426;DHT22;12611;44.446;26.000;2023-02-21T13:14:41;21.40;45.20
24426;DHT22;12611;44.446;26.000;2023-02-21T13:17:12;21.50;46.00
24426;DHT22;12611;44.446;26.000;2023-02-21T13:19:45;21.60;45.80
24426;DHT22;12611;44.446;26.000;2023-02-21T13:25:50;21.80;45.90
24426;DHT22;12611;44.446;26.000;2023-02-21T13:28:23;21.80;45.80
24426;DHT22;12611;44.446;26.000;2023-02-21T13:30:57;21.80;45.90
24426;DHT22;12611;44.446;26.000;2023-02-21T13:33:29;21.90;46.00
24426;DHT22;12611;44.446;26.000;2023-02-21T13:36:19;21.90;45.80
24426;DHT22;12611;44.446;26.000;2023-02-21T13:38:57;21.80;46.30
24426;DHT22;12611;44.446;26.000;2023-02-21T13:41:28;21.70;45.70
24426;DHT22;12611;44.446;26.000;2023-02-21T13:44:03;21.70;45.80
24426;DHT22;12611;44.446;26.000;2023-02-21T13:47:00;21.70;45.80
24426;DHT22;12611;44.446;26.000;2023-02-21T13:49:50;21.70;45.70
24426;DHT22;12611;44.446;26.000;2023-02-21T13:55:27;21.90;45.40
24426;DHT22;12611;44.446;26.000;2023-02-21T14:01:21;24.80;40.40
24426;DHT22;12611;44.446;26.000;2023-02-21T14:03:54;25.10;39.70
24426;DHT22;12611;44.446;26.000;2023-02-21T14:06:33;25.80;39.60
24426;DHT22;12611;44.446;26.000;2023-02-21T14:09:05;25.30;39.40
24426;DHT22;12611;44.446;26.000;2023-02-21T14:11:37;25.30;39.40
24426;DHT22;12611;44.446;26.000;2023-02-21T14:14:23;25.80;38.50
24426;DHT22;12611;44.446;26.000;2023-02-21T14:16:59;25.70;38.70
24426;DHT22;12611;44.446;26.000;2023-02-21T14:19:35;26.20;37.90
24426;DHT22;12611;44.446;26.000;2023-02-21T14:22:10;27.20;37.20
24426;DHT22;12611;44.446;26.000;2023-02-21T14:24:42;27.80;36.30
24426;DHT22;12611;44.446;26.000;2023-02-21T14:27:31;28.10;36.20
24426;DHT22;12611;44.446;26.000;2023-02-21T14:30:31;27.10;36.50
24426;DHT22;12611;44.446;26.000;2023-02-21T14:33:20;26.50;37.40
24426;DHT22;12611;44.446;26.000;2023-02-21T14:35:57;26.10;38.00
24426;DHT22;12611;44.446;26.000;2023-02-21T14:38:29;26.20;37.80
24426;DHT22;12611;44.446;26.000;2023-02-21T14:41:27;26.20;37.50
24426;DHT22;12611;44.446;26.000;2023-02-21T14:44:11;26.00;37.80
24426;DHT22;12611;44.446;26.000;2023-02-21T14:47:15;25.90;38.30
24426;DHT22;12611;44.446;26.000;2023-02-21T14:50:18;25.60;38.40
24426;DHT22;12611;44.446;26.000;2023-02-21T15:02:15;23.80;41.00
24426;DHT22;12611;44.446;26.000;2023-02-21T15:04:50;23.40;41.70
24426;DHT22;12611;44.446;26.000;2023-02-21T15:07:30;23.10;42.40
24426;DHT22;12611;44.446;26.000;2023-02-21T15:10:20;22.80;42.90
24426;DHT22;12611;44.446;26.000;2023-02-21T15:12:51;22.40;43.60
24426;DHT22;12611;44.446;26.000;2023-02-21T15:15:22;22.20;43.90
24426;DHT22;12611;44.446;26.000;2023-02-21T15:18:01;21.90;44.30
24426;DHT22;12611;44.446;26.000;2023-02-21T15:20:31;21.70;44.80
24426;DHT22;12611;44.446;26.000;2023-02-21T15:23:10;21.50;45.20
24426;DHT22;12611;44.446;26.000;2023-02-21T15:25:39;21.20;45.30
24426;DHT22;12611;44.446;26.000;2023-02-21T15:28:20;21.00;45.50
24426;DHT22;12611;44.446;26.000;2023-02-21T15:31:01;20.90;45.80
24426;DHT22;12611;44.446;26.000;2023-02-21T15:33:32;20.70;46.10
24426;DHT22;12611;44.446;26.000;2023-02-21T15:36:03;20.50;46.40
24426;DHT22;12611;44.446;26.000;2023-02-21T15:38:36;20.30;46.70
24426;DHT22;12611;44.446;26.000;2023-02-21T15:41:08;20.30;47.10
24426;DHT22;12611;44.446;26.000;2023-02-21T15:43:46;20.10;47.20
24426;DHT22;12611;44.446;26.000;2023-02-21T15:46:20;19.90;47.60
24426;DHT22;12611;44.446;26.000;2023-02-21T15:48:52;19.80;47.90
24426;DHT22;12611;44.446;26.000;2023-02-21T15:51:22;19.70;48.10
24426;DHT22;12611;44.446;26.000;2023-02-21T15:54:22;19.60;48.40
24426;DHT22;12611;44.446;26.000;2023-02-21T15:57:04;19.50;48.70
24426;DHT22;12611;44.446;26.000;2023-02-21T15:59:36;19.40;48.70
24426;DHT22;12611;44.446;26.000;2023-02-21T16:02:19;19.30;48.90
24426;DHT22;12611;44.446;26.000;2023-02-21T16:04:50;19.20;49.30
24426;DHT22;12611;44.446;26.000;2023-02-21T16:07:31;19.10;49.40
24426;DHT22;12611;44.446;26.000;2023-02-21T16:10:10;19.00;49.70
24426;DHT22;12611;44.446;26.000;2023-02-21T16:12:41;19.00;49.90
24426;DHT22;12611;44.446;26.000;2023-02-21T16:15:22;18.80;50.00
24426;DHT22;12611;44.446;26.000;2023-02-21T16:17:53;18.80;50.20
24426;DHT22;12611;44.446;26.000;2023-02-21T16:20:25;18.70;50.30
24426;DHT22;12611;44.446;26.000;2023-02-21T16:23:13;18.60;50.40
24426;DHT22;12611;44.446;26.000;2023-02-21T16:25:57;18.60;50.60
24426;DHT22;12611;44.446;26.000;2023-02-21T16:28:26;18.50;50.70
24426;DHT22;12611;44.446;26.000;2023-02-21T16:30:55;18.40;50.70
24426;DHT22;12611;44.446;26.000;2023-02-21T16:33:27;18.30;50.90
24426;DHT22;12611;44.446;26.000;2023-02-21T16:35:56;18.30;51.10
24426;DHT22;12611;44.446;26.000;2023-02-21T16:38:25;18.30;51.20
24426;DHT22;12611;44.446;26.000;2023-02-21T16:40:55;18.20;51.20